sensor_id;sensor_type;location;lat;lon;timestamp;P1;durP1;ratioP1;P2;durP2;ratioP2
24801;SDS011;12898;50.520;12.152;2022-12-18T00:02:16;44.53;;;18.37;;
24801;SDS011;12898;50.520;12.152;2022-12-18T00:04:42;42.77;;;18.93;;
24801;SDS011;12898;50.520;12.152;2022-12-18T00:07:08;46.23;;;20.03;;
24801;SDS011;12898;50.520;12.152;2022-12-18T00:09:33;40.13;;;18.77;;
24801;SDS011;12898;50.520;12.152;2022-12-18T00:11:59;49.97;;;19.97;;
24801;SDS011;12898;50.520;12.152;2022-12-18T00:14:25;47.00;;;18.13;;
24801;SDS011;12898;50.520;12.152;2022-12-18T00:16:50;41.80;;;18.30;;
24801;SDS011;12898;50.520;12.152;2022-12-18T00:19:16;38.80;;;18.57;;
24801;SDS011;12898;50.520;12.152;2022-12-18T00:21:42;42.13;;;19.73;;
24801;SDS011;12898;50.520;12.152;2022-12-18T00:24:09;43.37;;;19.07;;
24801;SDS011;12898;50.520;12.152;2022-12-18T00:26:36;41.30;;;18.53;;
24801;SDS011;12898;50.520;12.152;2022-12-18T00:29:09;46.13;;;19.60;;
24801;SDS011;12898;50.520;12.152;2022-12-18T00:31:38;40.87;;;18.83;;
24801;SDS011;12898;50.520;12.152;2022-12-18T00:34:05;40.03;;;17.73;;
24801;SDS011;12898;50.520;12.152;2022-12-18T00:36:32;39.07;;;17.93;;
24801;SDS011;12898;50.520;12.152;2022-12-18T00:39:00;38.10;;;18.40;;
24801;SDS011;12898;50.520;12.152;2022-12-18T00:41:28;38.23;;;17.73;;
24801;SDS011;12898;50.520;12.152;2022-12-18T00:44:13;39.47;;;17.93;;
24801;SDS011;12898;50.520;12.152;2022-12-18T00:46:41;40.10;;;18.60;;
24801;SDS011;12898;50.520;12.152;2022-12-18T00:49:08;41.77;;;18.77;;
24801;SDS011;12898;50.520;12.152;2022-12-18T00:51:36;45.90;;;19.80;;
24801;SDS011;12898;50.520;12.152;2022-12-18T00:54:03;36.73;;;16.37;;
24801;SDS011;12898;50.520;12.152;2022-12-18T00:56:29;40.07;;;17.43;;
24801;SDS011;12898;50.520;12.152;2022-12-18T00:58:56;42.30;;;18.43;;
24801;SDS011;12898;50.520;12.152;2022-12-18T01:01:21;39.67;;;16.50;;
24801;SDS011;12898;50.520;12.152;2022-12-18T01:03:47;40.03;;;17.13;;
24801;SDS011;12898;50.520;12.152;2022-12-18T01:06:13;40.10;;;17.33;;
24801;SDS011;12898;50.520;12.152;2022-12-18T01:08:40;38.27;;;16.93;;
24801;SDS011;12898;50.520;12.152;2022-12-18T01:11:08;33.63;;;15.80;;
24801;SDS011;12898;50.520;12.152;2022-12-18T01:13:39;40.93;;;16.43;;
24801;SDS011;12898;50.520;12.152;2022-12-18T01:16:05;36.27;;;16.73;;
24801;SDS011;12898;50.520;12.152;2022-12-18T01:18:32;31.23;;;14.50;;
24801;SDS011;12898;50.520;12.152;2022-12-18T01:20:57;39.57;;;15.60;;
24801;SDS011;12898;50.520;12.152;2022-12-18T01:23:23;40.80;;;16.70;;
24801;SDS011;12898;50.520;12.152;2022-12-18T01:25:51;38.03;;;16.13;;
24801;SDS011;12898;50.520;12.152;2022-12-18T01:28:17;39.27;;;15.73;;
24801;SDS011;12898;50.520;12.152;2022-12-18T01:30:43;34.17;;;16.67;;
24801;SDS011;12898;50.520;12.152;2022-12-18T01:33:08;40.53;;;17.13;;
24801;SDS011;12898;50.520;12.152;2022-12-18T01:35:39;39.30;;;16.33;;
24801;SDS011;12898;50.520;12.152;2022-12-18T01:38:06;35.47;;;15.90;;
24801;SDS011;12898;50.520;12.152;2022-12-18T01:40:32;36.40;;;15.87;;
24801;SDS011;12898;50.520;12.152;2022-12-18T01:42:58;38.53;;;15.37;;
24801;SDS011;12898;50.520;12.152;2022-12-18T01:45:25;34.83;;;14.70;;
24801;SDS011;12898;50.520;12.152;2022-12-18T01:47:57;36.43;;;15.67;;
24801;SDS011;12898;50.520;12.152;2022-12-18T01:50:30;40.67;;;16.97;;
24801;SDS011;12898;50.520;12.152;2022-12-18T01:53:19;38.07;;;16.60;;
24801;SDS011;12898;50.520;12.152;2022-12-18T01:55:48;36.47;;;17.20;;
24801;SDS011;12898;50.520;12.152;2022-12-18T01:58:19;36.10;;;14.87;;
24801;SDS011;12898;50.520;12.152;2022-12-18T02:00:49;39.43;;;17.33;;
24801;SDS011;12898;50.520;12.152;2022-12-18T02:03:15;37.43;;;17.50;;
24801;SDS011;12898;50.520;12.152;2022-12-18T02:05:44;33.43;;;16.07;;
24801;SDS011;12898;50.520;12.152;2022-12-18T02:08:19;35.10;;;15.97;;
24801;SDS011;12898;50.520;12.152;2022-12-18T02:16:52;30.90;;;14.63;;
24801;SDS011;12898;50.520;12.152;2022-12-18T02:28:23;35.33;;;15.47;;
24801;SDS011;12898;50.520;12.152;2022-12-18T02:30:53;36.93;;;15.27;;
24801;SDS011;12898;50.520;12.152;2022-12-18T02:33:23;34.70;;;15.97;;
24801;SDS011;12898;50.520;12.152;2022-12-18T02:35:52;38.43;;;15.47;;
24801;SDS011;12898;50.520;12.152;2022-12-18T02:38:20;32.57;;;15.67;;
24801;SDS011;12898;50.520;12.152;2022-12-18T02:40:46;36.10;;;14.87;;
24801;SDS011;12898;50.520;12.152;2022-12-18T02:43:14;35.63;;;15.57;;
24801;SDS011;12898;50.520;12.152;2022-12-18T02:45:56;30.67;;;14.17;;
24801;SDS011;12898;50.520;12.152;2022-12-18T02:48:25;32.00;;;13.73;;
24801;SDS011;12898;50.520;12.152;2022-12-18T02:51:11;31.10;;;14.47;;
24801;SDS011;12898;50.520;12.152;2022-12-18T02:53:51;29.23;;;13.40;;
24801;SDS011;12898;50.520;12.152;2022-12-18T02:56:26;28.63;;;14.23;;
24801;SDS011;12898;50.520;12.152;2022-12-18T02:59:04;30.70;;;13.47;;
24801;SDS011;12898;50.520;12.152;2022-12-18T03:01:46;30.77;;;13.87;;
24801;SDS011;12898;50.520;12.152;2022-12-18T03:04:30;32.10;;;13.40;;
24801;SDS011;12898;50.520;12.152;2022-12-18T03:07:08;34.90;;;16.00;;
24801;SDS011;12898;50.520;12.152;2022-12-18T03:09:41;35.97;;;15.23;;
24801;SDS011;12898;50.520;12.152;2022-12-18T03:12:24;29.97;;;14.70;;
24801;SDS011;12898;50.520;12.152;2022-12-18T03:17:32;24.33;;;10.80;;
24801;SDS011;12898;50.520;12.152;2022-12-18T03:20:02;35.33;;;15.00;;
24801;SDS011;12898;50.520;12.152;2022-12-18T03:22:33;34.47;;;14.83;;
24801;SDS011;12898;50.520;12.152;2022-12-18T03:25:02;33.40;;;14.87;;
24801;SDS011;12898;50.520;12.152;2022-12-18T03:27:33;32.13;;;13.50;;
24801;SDS011;12898;50.520;12.152;2022-12-18T03:30:04;31.27;;;14.30;;
24801;SDS011;12898;50.520;12.152;2022-12-18T03:32:35;31.90;;;13.63;;
24801;SDS011;12898;50.520;12.152;2022-12-18T03:35:35;34.40;;;13.40;;
24801;SDS011;12898;50.520;12.152;2022-12-18T03:38:05;37.20;;;15.30;;
24801;SDS011;12898;50.520;12.152;2022-12-18T03:44:15;30.73;;;13.80;;
24801;SDS011;12898;50.520;12.152;2022-12-18T03:47:14;31.43;;;14.00;;
24801;SDS011;12898;50.520;12.152;2022-12-18T03:50:13;33.27;;;14.80;;
24801;SDS011;12898;50.520;12.152;2022-12-18T03:52:49;33.50;;;14.20;;
24801;SDS011;12898;50.520;12.152;2022-12-18T03:55:27;35.13;;;13.53;;
24801;SDS011;12898;50.520;12.152;2022-12-18T03:57:56;33.07;;;13.20;;
24801;SDS011;12898;50.520;12.152;2022-12-18T04:00:23;31.90;;;14.57;;
24801;SDS011;12898;50.520;12.152;2022-12-18T04:02:51;32.23;;;13.37;;
24801;SDS011;12898;50.520;12.152;2022-12-18T04:05:19;34.73;;;14.50;;
24801;SDS011;12898;50.520;12.152;2022-12-18T04:07:47;28.20;;;13.77;;
24801;SDS011;12898;50.520;12.152;2022-12-18T04:10:14;29.27;;;13.07;;
24801;SDS011;12898;50.520;12.152;2022-12-18T04:12:41;28.13;;;13.17;;
24801;SDS011;12898;50.520;12.152;2022-12-18T04:15:07;27.47;;;12.67;;
24801;SDS011;12898;50.520;12.152;2022-12-18T04:17:34;32.57;;;14.43;;
24801;SDS011;12898;50.520;12.152;2022-12-18T04:20:00;31.83;;;12.33;;
24801;SDS011;12898;50.520;12.152;2022-12-18T04:22:25;28.43;;;13.33;;
24801;SDS011;12898;50.520;12.152;2022-12-18T04:24:51;26.17;;;12.23;;
24801;SDS011;12898;50.520;12.152;2022-12-18T04:27:17;34.90;;;13.97;;
24801;SDS011;12898;50.520;12.152;2022-12-18T04:29:42;31.57;;;12.87;;
24801;SDS011;12898;50.520;12.152;2022-12-18T04:32:08;32.93;;;13.17;;
24801;SDS011;12898;50.520;12.152;2022-12-18T04:34:34;37.63;;;13.17;;
24801;SDS011;12898;50.520;12.152;2022-12-18T04:36:59;29.83;;;13.67;;
24801;SDS011;12898;50.520;12.152;2022-12-18T04:39:25;35.23;;;14.03;;
24801;SDS011;12898;50.520;12.152;2022-12-18T04:41:51;29.97;;;12.43;;
24801;SDS011;12898;50.520;12.152;2022-12-18T04:44:17;28.33;;;13.03;;
24801;SDS011;12898;50.520;12.152;2022-12-18T04:46:42;25.97;;;12.73;;
24801;SDS011;12898;50.520;12.152;2022-12-18T04:49:08;30.27;;;12.70;;
24801;SDS011;12898;50.520;12.152;2022-12-18T04:51:35;31.53;;;11.80;;
24801;SDS011;12898;50.520;12.152;2022-12-18T04:54:02;30.10;;;13.07;;
24801;SDS011;12898;50.520;12.152;2022-12-18T04:56:28;31.73;;;12.93;;
24801;SDS011;12898;50.520;12.152;2022-12-18T04:58:55;31.97;;;12.00;;
24801;SDS011;12898;50.520;12.152;2022-12-18T05:01:21;29.97;;;11.80;;
24801;SDS011;12898;50.520;12.152;2022-12-18T05:03:47;30.00;;;11.63;;
24801;SDS011;12898;50.520;12.152;2022-12-18T05:06:12;27.57;;;12.30;;
24801;SDS011;12898;50.520;12.152;2022-12-18T05:08:38;34.07;;;13.03;;
24801;SDS011;12898;50.520;12.152;2022-12-18T05:11:05;33.30;;;11.70;;
24801;SDS011;12898;50.520;12.152;2022-12-18T05:13:34;28.67;;;12.87;;
24801;SDS011;12898;50.520;12.152;2022-12-18T05:16:01;26.77;;;12.10;;
24801;SDS011;12898;50.520;12.152;2022-12-18T05:18:27;31.93;;;11.87;;
24801;SDS011;12898;50.520;12.152;2022-12-18T05:20:53;32.17;;;12.13;;
24801;SDS011;12898;50.520;12.152;2022-12-18T05:23:20;32.23;;;13.07;;
24801;SDS011;12898;50.520;12.152;2022-12-18T05:25:58;26.43;;;11.80;;
24801;SDS011;12898;50.520;12.152;2022-12-18T05:28:28;27.17;;;12.10;;
24801;SDS011;12898;50.520;12.152;2022-12-18T05:30:57;25.97;;;12.00;;
24801;SDS011;12898;50.520;12.152;2022-12-18T05:33:25;27.90;;;11.63;;
24801;SDS011;12898;50.520;12.152;2022-12-18T05:35:55;29.37;;;12.87;;
24801;SDS011;12898;50.520;12.152;2022-12-18T05:38:24;33.00;;;14.03;;
24801;SDS011;12898;50.520;12.152;2022-12-18T05:40:51;34.10;;;13.13;;
24801;SDS011;12898;50.520;12.152;2022-12-18T05:43:18;29.77;;;13.37;;
24801;SDS011;12898;50.520;12.152;2022-12-18T05:45:44;34.20;;;14.93;;
24801;SDS011;12898;50.520;12.152;2022-12-18T05:48:10;30.77;;;12.73;;
24801;SDS011;12898;50.520;12.152;2022-12-18T05:50:40;27.37;;;13.07;;
24801;SDS011;12898;50.520;12.152;2022-12-18T05:53:07;28.33;;;12.60;;
24801;SDS011;12898;50.520;12.152;2022-12-18T05:55:34;28.80;;;11.93;;
24801;SDS011;12898;50.520;12.152;2022-12-18T05:58:01;28.77;;;12.47;;
24801;SDS011;12898;50.520;12.152;2022-12-18T06:00:29;25.97;;;12.63;;
24801;SDS011;12898;50.520;12.152;2022-12-18T06:02:56;29.30;;;12.23;;
24801;SDS011;12898;50.520;12.152;2022-12-18T06:05:23;26.77;;;11.83;;
24801;SDS011;12898;50.520;12.152;2022-12-18T06:07:48;24.83;;;11.40;;
24801;SDS011;12898;50.520;12.152;2022-12-18T06:10:14;27.47;;;11.13;;
24801;SDS011;12898;50.520;12.152;2022-12-18T06:12:40;23.63;;;11.07;;
24801;SDS011;12898;50.520;12.152;2022-12-18T06:15:05;26.50;;;11.70;;
24801;SDS011;12898;50.520;12.152;2022-12-18T06:17:32;26.87;;;11.60;;
24801;SDS011;12898;50.520;12.152;2022-12-18T06:19:58;22.17;;;10.07;;
24801;SDS011;12898;50.520;12.152;2022-12-18T06:22:24;26.43;;;11.27;;
24801;SDS011;12898;50.520;12.152;2022-12-18T06:24:50;24.97;;;11.30;;
24801;SDS011;12898;50.520;12.152;2022-12-18T06:27:16;30.83;;;12.37;;
24801;SDS011;12898;50.520;12.152;2022-12-18T06:29:42;23.90;;;10.33;;
24801;SDS011;12898;50.520;12.152;2022-12-18T06:32:07;25.87;;;11.13;;
24801;SDS011;12898;50.520;12.152;2022-12-18T06:34:33;24.50;;;11.17;;
24801;SDS011;12898;50.520;12.152;2022-12-18T06:36:59;29.20;;;11.97;;
24801;SDS011;12898;50.520;12.152;2022-12-18T06:39:28;23.63;;;12.20;;
24801;SDS011;12898;50.520;12.152;2022-12-18T06:41:54;24.63;;;11.67;;
24801;SDS011;12898;50.520;12.152;2022-12-18T06:44:19;27.07;;;12.07;;
24801;SDS011;12898;50.520;12.152;2022-12-18T06:46:45;24.93;;;10.80;;
24801;SDS011;12898;50.520;12.152;2022-12-18T06:49:11;23.10;;;9.93;;
24801;SDS011;12898;50.520;12.152;2022-12-18T06:51:37;28.97;;;12.00;;
24801;SDS011;12898;50.520;12.152;2022-12-18T06:54:03;34.40;;;15.70;;
24801;SDS011;12898;50.520;12.152;2022-12-18T06:56:29;36.90;;;16.13;;
24801;SDS011;12898;50.520;12.152;2022-12-18T06:58:55;29.83;;;13.00;;
24801;SDS011;12898;50.520;12.152;2022-12-18T07:01:21;31.33;;;11.90;;
24801;SDS011;12898;50.520;12.152;2022-12-18T07:03:51;28.67;;;12.70;;
24801;SDS011;12898;50.520;12.152;2022-12-18T07:06:20;23.27;;;11.10;;
24801;SDS011;12898;50.520;12.152;2022-12-18T07:08:48;25.47;;;11.23;;
24801;SDS011;12898;50.520;12.152;2022-12-18T07:11:15;19.40;;;9.63;;
24801;SDS011;12898;50.520;12.152;2022-12-18T07:13:42;21.70;;;10.37;;
24801;SDS011;12898;50.520;12.152;2022-12-18T07:16:09;22.83;;;10.07;;
24801;SDS011;12898;50.520;12.152;2022-12-18T07:18:43;23.33;;;10.73;;
24801;SDS011;12898;50.520;12.152;2022-12-18T07:21:10;20.77;;;10.07;;
24801;SDS011;12898;50.520;12.152;2022-12-18T07:23:42;24.70;;;11.23;;
24801;SDS011;12898;50.520;12.152;2022-12-18T07:26:10;29.77;;;11.27;;
24801;SDS011;12898;50.520;12.152;2022-12-18T07:28:38;25.33;;;11.57;;
24801;SDS011;12898;50.520;12.152;2022-12-18T07:31:06;29.53;;;11.97;;
24801;SDS011;12898;50.520;12.152;2022-12-18T07:33:35;25.33;;;12.53;;
24801;SDS011;12898;50.520;12.152;2022-12-18T07:36:01;23.07;;;11.30;;
24801;SDS011;12898;50.520;12.152;2022-12-18T07:38:32;29.10;;;12.37;;
24801;SDS011;12898;50.520;12.152;2022-12-18T07:41:06;26.07;;;11.53;;
24801;SDS011;12898;50.520;12.152;2022-12-18T07:43:37;27.83;;;12.33;;
24801;SDS011;12898;50.520;12.152;2022-12-18T07:46:05;32.27;;;13.33;;
24801;SDS011;12898;50.520;12.152;2022-12-18T07:48:32;32.80;;;11.90;;
24801;SDS011;12898;50.520;12.152;2022-12-18T07:51:01;28.33;;;13.27;;
24801;SDS011;12898;50.520;12.152;2022-12-18T07:53:29;26.87;;;12.50;;
24801;SDS011;12898;50.520;12.152;2022-12-18T07:56:00;26.93;;;12.83;;
24801;SDS011;12898;50.520;12.152;2022-12-18T07:58:29;27.13;;;13.17;;
24801;SDS011;12898;50.520;12.152;2022-12-18T08:01:01;32.67;;;13.83;;
24801;SDS011;12898;50.520;12.152;2022-12-18T08:03:35;36.07;;;14.60;;
24801;SDS011;12898;50.520;12.152;2022-12-18T08:06:03;33.03;;;15.07;;
24801;SDS011;12898;50.520;12.152;2022-12-18T08:08:31;31.73;;;14.00;;
24801;SDS011;12898;50.520;12.152;2022-12-18T08:10:59;32.73;;;15.33;;
24801;SDS011;12898;50.520;12.152;2022-12-18T08:13:25;32.73;;;15.40;;
24801;SDS011;12898;50.520;12.152;2022-12-18T08:16:09;31.03;;;14.37;;
24801;SDS011;12898;50.520;12.152;2022-12-18T08:18:36;32.03;;;14.00;;
24801;SDS011;12898;50.520;12.152;2022-12-18T08:21:09;32.37;;;15.80;;
24801;SDS011;12898;50.520;12.152;2022-12-18T08:23:36;32.67;;;14.27;;
24801;SDS011;12898;50.520;12.152;2022-12-18T08:26:03;30.43;;;14.30;;
24801;SDS011;12898;50.520;12.152;2022-12-18T08:28:28;34.20;;;15.60;;
24801;SDS011;12898;50.520;12.152;2022-12-18T08:30:54;29.03;;;13.83;;
24801;SDS011;12898;50.520;12.152;2022-12-18T08:33:20;29.70;;;14.87;;
24801;SDS011;12898;50.520;12.152;2022-12-18T08:35:45;29.67;;;14.37;;
24801;SDS011;12898;50.520;12.152;2022-12-18T08:38:11;29.83;;;13.77;;
24801;SDS011;12898;50.520;12.152;2022-12-18T08:40:37;27.97;;;13.37;;
24801;SDS011;12898;50.520;12.152;2022-12-18T08:43:02;29.60;;;13.27;;
24801;SDS011;12898;50.520;12.152;2022-12-18T08:45:46;28.20;;;12.80;;
24801;SDS011;12898;50.520;12.152;2022-12-18T08:48:12;29.50;;;13.13;;
24801;SDS011;12898;50.520;12.152;2022-12-18T08:50:38;27.97;;;13.37;;
24801;SDS011;12898;50.520;12.152;2022-12-18T08:53:04;28.57;;;12.77;;
24801;SDS011;12898;50.520;12.152;2022-12-18T08:55:29;32.47;;;14.30;;
24801;SDS011;12898;50.520;12.152;2022-12-18T08:57:55;29.50;;;14.30;;
24801;SDS011;12898;50.520;12.152;2022-12-18T09:00:21;27.83;;;13.07;;
24801;SDS011;12898;50.520;12.152;2022-12-18T09:02:46;29.63;;;14.10;;
24801;SDS011;12898;50.520;12.152;2022-12-18T09:05:12;31.30;;;13.90;;
24801;SDS011;12898;50.520;12.152;2022-12-18T09:07:38;33.47;;;16.10;;
24801;SDS011;12898;50.520;12.152;2022-12-18T09:10:04;28.73;;;15.17;;
24801;SDS011;12898;50.520;12.152;2022-12-18T09:12:30;34.23;;;17.40;;
24801;SDS011;12898;50.520;12.152;2022-12-18T09:14:56;33.33;;;16.70;;
24801;SDS011;12898;50.520;12.152;2022-12-18T09:17:22;33.33;;;16.97;;
24801;SDS011;12898;50.520;12.152;2022-12-18T09:19:48;35.87;;;16.60;;
24801;SDS011;12898;50.520;12.152;2022-12-18T09:22:14;32.70;;;15.73;;
24801;SDS011;12898;50.520;12.152;2022-12-18T09:24:39;32.93;;;15.40;;
24801;SDS011;12898;50.520;12.152;2022-12-18T09:27:05;32.40;;;16.10;;
24801;SDS011;12898;50.520;12.152;2022-12-18T09:29:31;33.97;;;14.53;;
24801;SDS011;12898;50.520;12.152;2022-12-18T09:31:57;34.47;;;17.10;;
24801;SDS011;12898;50.520;12.152;2022-12-18T09:34:23;36.83;;;17.77;;
24801;SDS011;12898;50.520;12.152;2022-12-18T09:36:49;30.83;;;16.13;;
24801;SDS011;12898;50.520;12.152;2022-12-18T09:39:16;35.07;;;17.50;;
24801;SDS011;12898;50.520;12.152;2022-12-18T09:41:43;28.67;;;16.33;;
24801;SDS011;12898;50.520;12.152;2022-12-18T09:44:22;30.70;;;14.97;;
24801;SDS011;12898;50.520;12.152;2022-12-18T09:49:44;29.13;;;14.77;;
24801;SDS011;12898;50.520;12.152;2022-12-18T09:52:17;24.73;;;13.67;;
24801;SDS011;12898;50.520;12.152;2022-12-18T09:58:06;21.03;;;9.67;;
24801;SDS011;12898;50.520;12.152;2022-12-18T10:00:43;22.27;;;9.43;;
24801;SDS011;12898;50.520;12.152;2022-12-18T10:03:10;20.47;;;9.40;;
24801;SDS011;12898;50.520;12.152;2022-12-18T10:05:48;18.07;;;7.70;;
24801;SDS011;12898;50.520;12.152;2022-12-18T10:08:40;18.30;;;7.83;;
24801;SDS011;12898;50.520;12.152;2022-12-18T10:11:17;20.10;;;8.17;;
24801;SDS011;12898;50.520;12.152;2022-12-18T10:13:56;15.20;;;7.23;;
24801;SDS011;12898;50.520;12.152;2022-12-18T10:16:43;16.07;;;7.13;;
24801;SDS011;12898;50.520;12.152;2022-12-18T10:19:43;16.30;;;7.23;;
24801;SDS011;12898;50.520;12.152;2022-12-18T10:25:44;13.67;;;6.97;;
24801;SDS011;12898;50.520;12.152;2022-12-18T10:27:58;16.80;;;6.90;;
24801;SDS011;12898;50.520;12.152;2022-12-18T10:30:35;16.73;;;6.80;;
24801;SDS011;12898;50.520;12.152;2022-12-18T10:33:04;17.23;;;6.83;;
24801;SDS011;12898;50.520;12.152;2022-12-18T10:35:29;16.87;;;6.97;;
24801;SDS011;12898;50.520;12.152;2022-12-18T10:37:59;13.67;;;6.93;;
24801;SDS011;12898;50.520;12.152;2022-12-18T10:40:27;13.77;;;6.90;;
24801;SDS011;12898;50.520;12.152;2022-12-18T10:43:03;16.60;;;6.80;;
24801;SDS011;12898;50.520;12.152;2022-12-18T10:45:40;17.00;;;7.23;;
24801;SDS011;12898;50.520;12.152;2022-12-18T10:48:19;16.10;;;7.40;;
24801;SDS011;12898;50.520;12.152;2022-12-18T10:50:47;15.93;;;7.00;;
24801;SDS011;12898;50.520;12.152;2022-12-18T10:53:22;15.10;;;7.03;;
24801;SDS011;12898;50.520;12.152;2022-12-18T10:55:54;14.87;;;6.73;;
24801;SDS011;12898;50.520;12.152;2022-12-18T10:58:28;17.93;;;7.80;;
24801;SDS011;12898;50.520;12.152;2022-12-18T11:06:10;13.70;;;5.97;;
24801;SDS011;12898;50.520;12.152;2022-12-18T11:08:39;12.33;;;5.70;;
24801;SDS011;12898;50.520;12.152;2022-12-18T11:11:14;12.60;;;6.23;;
24801;SDS011;12898;50.520;12.152;2022-12-18T11:14:06;11.83;;;5.27;;
24801;SDS011;12898;50.520;12.152;2022-12-18T11:16:45;12.43;;;5.87;;
24801;SDS011;12898;50.520;12.152;2022-12-18T11:21:53;11.33;;;5.20;;
24801;SDS011;12898;50.520;12.152;2022-12-18T11:27:03;12.83;;;5.90;;
24801;SDS011;12898;50.520;12.152;2022-12-18T11:29:38;14.03;;;5.70;;
24801;SDS011;12898;50.520;12.152;2022-12-18T11:35:19;13.87;;;5.37;;
24801;SDS011;12898;50.520;12.152;2022-12-18T11:41:09;11.33;;;5.13;;
24801;SDS011;12898;50.520;12.152;2022-12-18T11:44:13;11.47;;;5.43;;
24801;SDS011;12898;50.520;12.152;2022-12-18T11:46:50;12.90;;;5.30;;
24801;SDS011;12898;50.520;12.152;2022-12-18T11:49:34;13.33;;;5.57;;
24801;SDS011;12898;50.520;12.152;2022-12-18T11:55:01;13.43;;;5.87;;
24801;SDS011;12898;50.520;12.152;2022-12-18T11:57:40;14.90;;;5.73;;
24801;SDS011;12898;50.520;12.152;2022-12-18T12:00:25;14.60;;;6.07;;
24801;SDS011;12898;50.520;12.152;2022-12-18T12:03:10;13.17;;;6.07;;
24801;SDS011;12898;50.520;12.152;2022-12-18T12:05:55;12.30;;;5.13;;
24801;SDS011;12898;50.520;12.152;2022-12-18T12:17:30;17.37;;;6.20;;
24801;SDS011;12898;50.520;12.152;2022-12-18T12:23:15;12.20;;;5.40;;
24801;SDS011;12898;50.520;12.152;2022-12-18T12:25:58;18.77;;;6.70;;
24801;SDS011;12898;50.520;12.152;2022-12-18T12:31:33;15.23;;;6.43;;
24801;SDS011;12898;50.520;12.152;2022-12-18T12:34:22;14.97;;;6.27;;
24801;SDS011;12898;50.520;12.152;2022-12-18T12:39:35;13.73;;;6.27;;
24801;SDS011;12898;50.520;12.152;2022-12-18T12:42:11;13.90;;;6.73;;
24801;SDS011;12898;50.520;12.152;2022-12-18T12:45:14;14.03;;;5.77;;
24801;SDS011;12898;50.520;12.152;2022-12-18T12:47:47;12.57;;;5.70;;
24801;SDS011;12898;50.520;12.152;2022-12-18T12:50:16;13.93;;;6.50;;
24801;SDS011;12898;50.520;12.152;2022-12-18T12:52:45;13.33;;;6.23;;
24801;SDS011;12898;50.520;12.152;2022-12-18T12:55:17;13.97;;;6.57;;
24801;SDS011;12898;50.520;12.152;2022-12-18T13:00:31;13.13;;;6.10;;
24801;SDS011;12898;50.520;12.152;2022-12-18T13:06:00;14.43;;;6.27;;
24801;SDS011;12898;50.520;12.152;2022-12-18T13:11:46;15.90;;;6.83;;
24801;SDS011;12898;50.520;12.152;2022-12-18T13:14:31;16.03;;;6.37;;
24801;SDS011;12898;50.520;12.152;2022-12-18T13:17:17;14.60;;;6.33;;
24801;SDS011;12898;50.520;12.152;2022-12-18T13:20:12;15.80;;;6.57;;
24801;SDS011;12898;50.520;12.152;2022-12-18T13:28:06;17.40;;;7.20;;
24801;SDS011;12898;50.520;12.152;2022-12-18T13:30:43;15.17;;;6.43;;
24801;SDS011;12898;50.520;12.152;2022-12-18T13:38:22;16.00;;;7.40;;
24801;SDS011;12898;50.520;12.152;2022-12-18T13:51:42;17.03;;;7.63;;
24801;SDS011;12898;50.520;12.152;2022-12-18T13:56:56;16.70;;;7.53;;
24801;SDS011;12898;50.520;12.152;2022-12-18T13:59:22;17.90;;;7.50;;
24801;SDS011;12898;50.520;12.152;2022-12-18T14:01:58;16.57;;;8.00;;
24801;SDS011;12898;50.520;12.152;2022-12-18T14:04:53;15.20;;;7.43;;
24801;SDS011;12898;50.520;12.152;2022-12-18T14:07:23;19.47;;;7.93;;
24801;SDS011;12898;50.520;12.152;2022-12-18T14:09:59;18.03;;;7.80;;
24801;SDS011;12898;50.520;12.152;2022-12-18T14:12:27;15.97;;;7.30;;
24801;SDS011;12898;50.520;12.152;2022-12-18T14:18:01;17.77;;;7.10;;
24801;SDS011;12898;50.520;12.152;2022-12-18T14:20:50;17.67;;;7.57;;
24801;SDS011;12898;50.520;12.152;2022-12-18T14:23:51;16.27;;;7.67;;
24801;SDS011;12898;50.520;12.152;2022-12-18T14:28:47;16.53;;;7.03;;
24801;SDS011;12898;50.520;12.152;2022-12-18T14:31:17;16.47;;;7.80;;
24801;SDS011;12898;50.520;12.152;2022-12-18T14:33:49;15.13;;;7.23;;
24801;SDS011;12898;50.520;12.152;2022-12-18T14:36:26;15.80;;;7.60;;
24801;SDS011;12898;50.520;12.152;2022-12-18T14:38:54;17.07;;;7.33;;
24801;SDS011;12898;50.520;12.152;2022-12-18T14:41:23;17.37;;;7.77;;
24801;SDS011;12898;50.520;12.152;2022-12-18T14:43:51;19.27;;;7.87;;
24801;SDS011;12898;50.520;12.152;2022-12-18T14:49:17;18.33;;;9.13;;
24801;SDS011;12898;50.520;12.152;2022-12-18T14:52:02;19.67;;;8.33;;
24801;SDS011;12898;50.520;12.152;2022-12-18T14:54:31;18.30;;;8.60;;
24801;SDS011;12898;50.520;12.152;2022-12-18T14:59:48;19.07;;;9.10;;
24801;SDS011;12898;50.520;12.152;2022-12-18T15:02:18;16.47;;;7.87;;
24801;SDS011;12898;50.520;12.152;2022-12-18T15:05:04;19.33;;;9.50;;
24801;SDS011;12898;50.520;12.152;2022-12-18T15:07:46;21.07;;;9.10;;
24801;SDS011;12898;50.520;12.152;2022-12-18T15:20:54;18.83;;;8.30;;
24801;SDS011;12898;50.520;12.152;2022-12-18T15:23:21;15.43;;;7.37;;
24801;SDS011;12898;50.520;12.152;2022-12-18T15:25:59;13.43;;;6.80;;
24801;SDS011;12898;50.520;12.152;2022-12-18T15:28:34;16.00;;;7.63;;
24801;SDS011;12898;50.520;12.152;2022-12-18T15:33:39;18.67;;;7.53;;
24801;SDS011;12898;50.520;12.152;2022-12-18T15:36:16;17.50;;;7.23;;
24801;SDS011;12898;50.520;12.152;2022-12-18T15:38:48;18.57;;;8.23;;
24801;SDS011;12898;50.520;12.152;2022-12-18T15:41:19;18.70;;;7.93;;
24801;SDS011;12898;50.520;12.152;2022-12-18T15:43:49;16.13;;;8.17;;
24801;SDS011;12898;50.520;12.152;2022-12-18T15:46:23;18.97;;;8.23;;
24801;SDS011;12898;50.520;12.152;2022-12-18T15:48:51;18.17;;;7.50;;
24801;SDS011;12898;50.520;12.152;2022-12-18T15:51:22;17.40;;;7.83;;
24801;SDS011;12898;50.520;12.152;2022-12-18T15:53:53;17.00;;;8.03;;
24801;SDS011;12898;50.520;12.152;2022-12-18T15:56:22;19.23;;;8.53;;
24801;SDS011;12898;50.520;12.152;2022-12-18T15:59:14;16.63;;;7.40;;
24801;SDS011;12898;50.520;12.152;2022-12-18T16:01:44;16.90;;;7.43;;
24801;SDS011;12898;50.520;12.152;2022-12-18T16:04:13;17.43;;;7.77;;
24801;SDS011;12898;50.520;12.152;2022-12-18T16:06:41;17.00;;;7.60;;
24801;SDS011;12898;50.520;12.152;2022-12-18T16:09:07;15.40;;;7.97;;
24801;SDS011;12898;50.520;12.152;2022-12-18T16:11:34;17.20;;;7.97;;
24801;SDS011;12898;50.520;12.152;2022-12-18T16:14:25;19.77;;;8.50;;
24801;SDS011;12898;50.520;12.152;2022-12-18T16:16:58;16.13;;;7.80;;
24801;SDS011;12898;50.520;12.152;2022-12-18T16:19:27;15.40;;;7.53;;
24801;SDS011;12898;50.520;12.152;2022-12-18T16:21:55;18.37;;;7.63;;
24801;SDS011;12898;50.520;12.152;2022-12-18T16:24:23;15.93;;;7.23;;
24801;SDS011;12898;50.520;12.152;2022-12-18T16:26:52;20.73;;;8.50;;
24801;SDS011;12898;50.520;12.152;2022-12-18T16:29:18;18.73;;;8.40;;
24801;SDS011;12898;50.520;12.152;2022-12-18T16:31:52;16.20;;;6.83;;
24801;SDS011;12898;50.520;12.152;2022-12-18T16:34:25;16.60;;;6.47;;
24801;SDS011;12898;50.520;12.152;2022-12-18T16:36:55;14.77;;;6.73;;
24801;SDS011;12898;50.520;12.152;2022-12-18T16:39:23;16.03;;;7.33;;
24801;SDS011;12898;50.520;12.152;2022-12-18T16:41:49;15.93;;;7.77;;